Terminal Aerodrome Forecast
Issued by NWS

Home | Current Version | Previous Version | Text Only | Print | Product List | Glossary On
Versions: 1 2 3 4 5 6 7 8 9 10 11 12 13 14 15 16
530
FTUS46 KSEW 231746
TAFBLI
TAF
KBLI 231746Z 2318/2418 VRB03KT P6SM SCT020 BKN040
     FM232100 23004KT P6SM SCT035
     FM240800 14006KT P6SM VCSH SCT015 BKN040
      TEMPO 2412/2416 3SM -SHSN SCT005 OVC008=

USA.gov is the U.S. government's official web portal to all federal, state and local government web resources and services.